sensor_id;sensor_type;location;lat;lon;timestamp;P1;durP1;ratioP1;P2;durP2;ratioP2
48613;SDS011;34408;51.426;5.444;2024-02-21T00:00:21;15.88;;;5.03;;
48613;SDS011;34408;51.426;5.444;2024-02-21T00:02:49;14.82;;;5.35;;
48613;SDS011;34408;51.426;5.444;2024-02-21T00:05:17;19.38;;;5.55;;
48613;SDS011;34408;51.426;5.444;2024-02-21T00:07:45;16.45;;;5.10;;
48613;SDS011;34408;51.426;5.444;2024-02-21T00:10:13;13.80;;;5.22;;
48613;SDS011;34408;51.426;5.444;2024-02-21T00:12:41;18.77;;;5.00;;
48613;SDS011;34408;51.426;5.444;2024-02-21T00:15:10;15.68;;;5.50;;
48613;SDS011;34408;51.426;5.444;2024-02-21T00:17:38;19.80;;;5.63;;
48613;SDS011;34408;51.426;5.444;2024-02-21T00:20:07;14.35;;;4.55;;
48613;SDS011;34408;51.426;5.444;2024-02-21T00:22:35;15.65;;;5.07;;
48613;SDS011;34408;51.426;5.444;2024-02-21T00:25:04;24.20;;;5.43;;
48613;SDS011;34408;51.426;5.444;2024-02-21T00:27:32;19.30;;;5.40;;
48613;SDS011;34408;51.426;5.444;2024-02-21T00:30:00;18.08;;;5.20;;
48613;SDS011;34408;51.426;5.444;2024-02-21T00:32:29;16.30;;;5.43;;
48613;SDS011;34408;51.426;5.444;2024-02-21T00:34:58;25.35;;;6.15;;
48613;SDS011;34408;51.426;5.444;2024-02-21T00:37:26;12.50;;;4.82;;
48613;SDS011;34408;51.426;5.444;2024-02-21T00:39:54;18.58;;;5.10;;
48613;SDS011;34408;51.426;5.444;2024-02-21T00:42:22;16.10;;;5.20;;
48613;SDS011;34408;51.426;5.444;2024-02-21T00:44:49;19.67;;;4.43;;
48613;SDS011;34408;51.426;5.444;2024-02-21T00:47:17;18.23;;;4.95;;
48613;SDS011;34408;51.426;5.444;2024-02-21T00:49:47;11.88;;;4.57;;
48613;SDS011;34408;51.426;5.444;2024-02-21T00:52:14;12.52;;;4.43;;
48613;SDS011;34408;51.426;5.444;2024-02-21T00:54:42;13.30;;;4.57;;
48613;SDS011;34408;51.426;5.444;2024-02-21T00:59:47;13.60;;;4.63;;
48613;SDS011;34408;51.426;5.444;2024-02-21T01:02:14;20.00;;;4.65;;
48613;SDS011;34408;51.426;5.444;2024-02-21T01:04:42;13.77;;;4.60;;
48613;SDS011;34408;51.426;5.444;2024-02-21T01:07:12;17.88;;;4.75;;
48613;SDS011;34408;51.426;5.444;2024-02-21T01:09:39;15.57;;;4.45;;
48613;SDS011;34408;51.426;5.444;2024-02-21T01:12:07;14.95;;;4.68;;
48613;SDS011;34408;51.426;5.444;2024-02-21T01:14:35;12.07;;;4.30;;
48613;SDS011;34408;51.426;5.444;2024-02-21T01:17:03;12.27;;;4.90;;
48613;SDS011;34408;51.426;5.444;2024-02-21T01:19:32;13.25;;;4.38;;
48613;SDS011;34408;51.426;5.444;2024-02-21T01:22:00;17.08;;;5.55;;
48613;SDS011;34408;51.426;5.444;2024-02-21T01:24:29;14.38;;;4.93;;
48613;SDS011;34408;51.426;5.444;2024-02-21T01:26:57;16.58;;;5.07;;
48613;SDS011;34408;51.426;5.444;2024-02-21T01:29:24;8.63;;;3.60;;
48613;SDS011;34408;51.426;5.444;2024-02-21T01:31:52;11.18;;;4.18;;
48613;SDS011;34408;51.426;5.444;2024-02-21T01:34:20;12.43;;;4.25;;
48613;SDS011;34408;51.426;5.444;2024-02-21T01:36:48;15.38;;;4.38;;
48613;SDS011;34408;51.426;5.444;2024-02-21T01:39:16;13.50;;;4.65;;
48613;SDS011;34408;51.426;5.444;2024-02-21T01:41:45;14.95;;;4.97;;
48613;SDS011;34408;51.426;5.444;2024-02-21T01:44:13;12.55;;;4.05;;
48613;SDS011;34408;51.426;5.444;2024-02-21T01:46:41;11.60;;;4.57;;
48613;SDS011;34408;51.426;5.444;2024-02-21T01:49:09;10.07;;;4.30;;
48613;SDS011;34408;51.426;5.444;2024-02-21T01:51:37;13.25;;;4.72;;
48613;SDS011;34408;51.426;5.444;2024-02-21T01:54:05;9.27;;;4.03;;
48613;SDS011;34408;51.426;5.444;2024-02-21T01:56:33;11.35;;;4.47;;
48613;SDS011;34408;51.426;5.444;2024-02-21T01:59:02;16.10;;;4.30;;
48613;SDS011;34408;51.426;5.444;2024-02-21T02:01:30;13.25;;;3.78;;
48613;SDS011;34408;51.426;5.444;2024-02-21T02:03:58;14.27;;;4.38;;
48613;SDS011;34408;51.426;5.444;2024-02-21T02:06:27;10.45;;;3.97;;
48613;SDS011;34408;51.426;5.444;2024-02-21T02:08:54;14.70;;;3.97;;
48613;SDS011;34408;51.426;5.444;2024-02-21T02:11:22;11.77;;;4.10;;
48613;SDS011;34408;51.426;5.444;2024-02-21T02:13:50;12.05;;;4.93;;
48613;SDS011;34408;51.426;5.444;2024-02-21T02:16:20;12.90;;;5.10;;
48613;SDS011;34408;51.426;5.444;2024-02-21T02:18:47;8.38;;;4.00;;
48613;SDS011;34408;51.426;5.444;2024-02-21T02:21:16;10.73;;;4.30;;
48613;SDS011;34408;51.426;5.444;2024-02-21T02:23:55;10.40;;;4.20;;
48613;SDS011;34408;51.426;5.444;2024-02-21T02:26:23;7.57;;;3.08;;
48613;SDS011;34408;51.426;5.444;2024-02-21T02:28:51;12.75;;;4.53;;
48613;SDS011;34408;51.426;5.444;2024-02-21T02:31:19;15.45;;;4.40;;
48613;SDS011;34408;51.426;5.444;2024-02-21T02:33:47;14.85;;;4.20;;
48613;SDS011;34408;51.426;5.444;2024-02-21T02:36:15;12.90;;;4.53;;
48613;SDS011;34408;51.426;5.444;2024-02-21T02:38:44;11.77;;;3.60;;
48613;SDS011;34408;51.426;5.444;2024-02-21T02:41:13;11.63;;;4.88;;
48613;SDS011;34408;51.426;5.444;2024-02-21T02:43:41;11.35;;;4.07;;
48613;SDS011;34408;51.426;5.444;2024-02-21T02:46:09;13.32;;;3.70;;
48613;SDS011;34408;51.426;5.444;2024-02-21T02:48:37;7.45;;;3.92;;
48613;SDS011;34408;51.426;5.444;2024-02-21T02:51:05;11.60;;;3.97;;
48613;SDS011;34408;51.426;5.444;2024-02-21T02:53:33;11.32;;;4.22;;
48613;SDS011;34408;51.426;5.444;2024-02-21T02:56:01;13.40;;;4.03;;
48613;SDS011;34408;51.426;5.444;2024-02-21T02:58:30;8.90;;;3.97;;
48613;SDS011;34408;51.426;5.444;2024-02-21T03:00:58;12.52;;;4.55;;
48613;SDS011;34408;51.426;5.444;2024-02-21T03:03:26;11.85;;;4.28;;
48613;SDS011;34408;51.426;5.444;2024-02-21T03:05:53;8.82;;;3.53;;
48613;SDS011;34408;51.426;5.444;2024-02-21T03:08:21;10.43;;;4.00;;
48613;SDS011;34408;51.426;5.444;2024-02-21T03:10:49;8.70;;;3.25;;
48613;SDS011;34408;51.426;5.444;2024-02-21T03:13:17;14.00;;;3.85;;
48613;SDS011;34408;51.426;5.444;2024-02-21T03:15:46;10.27;;;3.55;;
48613;SDS011;34408;51.426;5.444;2024-02-21T03:18:14;11.65;;;3.67;;
48613;SDS011;34408;51.426;5.444;2024-02-21T03:20:42;10.10;;;3.25;;
48613;SDS011;34408;51.426;5.444;2024-02-21T03:23:10;10.68;;;4.05;;
48613;SDS011;34408;51.426;5.444;2024-02-21T03:25:38;10.40;;;3.22;;
48613;SDS011;34408;51.426;5.444;2024-02-21T03:28:07;8.57;;;3.33;;
48613;SDS011;34408;51.426;5.444;2024-02-21T03:30:35;6.82;;;2.83;;
48613;SDS011;34408;51.426;5.444;2024-02-21T03:33:04;8.13;;;3.53;;
48613;SDS011;34408;51.426;5.444;2024-02-21T03:35:32;10.90;;;4.07;;
48613;SDS011;34408;51.426;5.444;2024-02-21T03:38:00;8.32;;;3.05;;
48613;SDS011;34408;51.426;5.444;2024-02-21T03:40:28;8.25;;;2.90;;
48613;SDS011;34408;51.426;5.444;2024-02-21T03:42:55;9.40;;;3.40;;
48613;SDS011;34408;51.426;5.444;2024-02-21T03:45:23;10.60;;;3.55;;
48613;SDS011;34408;51.426;5.444;2024-02-21T03:47:51;11.52;;;3.97;;
48613;SDS011;34408;51.426;5.444;2024-02-21T03:50:20;8.23;;;3.47;;
48613;SDS011;34408;51.426;5.444;2024-02-21T03:52:48;10.38;;;3.42;;
48613;SDS011;34408;51.426;5.444;2024-02-21T03:55:16;8.43;;;3.05;;
48613;SDS011;34408;51.426;5.444;2024-02-21T03:57:44;9.52;;;3.97;;
48613;SDS011;34408;51.426;5.444;2024-02-21T04:00:12;9.18;;;4.38;;
48613;SDS011;34408;51.426;5.444;2024-02-21T04:02:40;10.07;;;3.55;;
48613;SDS011;34408;51.426;5.444;2024-02-21T04:05:08;12.60;;;4.60;;
48613;SDS011;34408;51.426;5.444;2024-02-21T04:07:39;7.97;;;3.88;;
48613;SDS011;34408;51.426;5.444;2024-02-21T04:10:08;10.60;;;4.28;;
48613;SDS011;34408;51.426;5.444;2024-02-21T04:12:36;9.55;;;3.90;;
48613;SDS011;34408;51.426;5.444;2024-02-21T04:15:04;13.32;;;4.38;;
48613;SDS011;34408;51.426;5.444;2024-02-21T04:17:33;9.38;;;4.55;;
48613;SDS011;34408;51.426;5.444;2024-02-21T04:20:02;14.00;;;4.47;;
48613;SDS011;34408;51.426;5.444;2024-02-21T04:22:32;12.00;;;4.28;;
48613;SDS011;34408;51.426;5.444;2024-02-21T04:25:02;10.20;;;4.03;;
48613;SDS011;34408;51.426;5.444;2024-02-21T04:27:30;10.10;;;4.00;;
48613;SDS011;34408;51.426;5.444;2024-02-21T04:29:58;8.15;;;3.75;;
48613;SDS011;34408;51.426;5.444;2024-02-21T04:32:26;18.02;;;5.45;;
48613;SDS011;34408;51.426;5.444;2024-02-21T04:34:54;19.30;;;4.85;;
48613;SDS011;34408;51.426;5.444;2024-02-21T04:37:22;11.63;;;4.75;;
48613;SDS011;34408;51.426;5.444;2024-02-21T04:39:50;12.57;;;4.45;;
48613;SDS011;34408;51.426;5.444;2024-02-21T04:42:19;13.90;;;5.25;;
48613;SDS011;34408;51.426;5.444;2024-02-21T04:44:47;10.77;;;5.65;;
48613;SDS011;34408;51.426;5.444;2024-02-21T04:47:15;10.88;;;5.20;;
48613;SDS011;34408;51.426;5.444;2024-02-21T04:49:43;13.73;;;4.63;;
48613;SDS011;34408;51.426;5.444;2024-02-21T04:52:11;12.07;;;5.07;;
48613;SDS011;34408;51.426;5.444;2024-02-21T04:54:39;12.88;;;5.30;;
48613;SDS011;34408;51.426;5.444;2024-02-21T04:57:06;13.73;;;6.07;;
48613;SDS011;34408;51.426;5.444;2024-02-21T04:59:38;14.30;;;5.07;;
48613;SDS011;34408;51.426;5.444;2024-02-21T05:02:05;14.07;;;4.88;;
48613;SDS011;34408;51.426;5.444;2024-02-21T05:04:35;11.43;;;4.82;;
48613;SDS011;34408;51.426;5.444;2024-02-21T05:07:04;9.70;;;5.22;;
48613;SDS011;34408;51.426;5.444;2024-02-21T05:09:32;15.55;;;5.38;;
48613;SDS011;34408;51.426;5.444;2024-02-21T05:12:00;11.30;;;4.97;;
48613;SDS011;34408;51.426;5.444;2024-02-21T05:14:28;17.83;;;5.07;;
48613;SDS011;34408;51.426;5.444;2024-02-21T05:16:57;14.07;;;5.15;;
48613;SDS011;34408;51.426;5.444;2024-02-21T05:19:25;10.80;;;4.68;;
48613;SDS011;34408;51.426;5.444;2024-02-21T05:21:53;11.75;;;4.93;;
48613;SDS011;34408;51.426;5.444;2024-02-21T05:24:20;13.48;;;5.65;;
48613;SDS011;34408;51.426;5.444;2024-02-21T05:26:48;14.80;;;5.03;;
48613;SDS011;34408;51.426;5.444;2024-02-21T05:29:16;12.18;;;5.13;;
48613;SDS011;34408;51.426;5.444;2024-02-21T05:31:54;11.45;;;5.05;;
48613;SDS011;34408;51.426;5.444;2024-02-21T05:34:25;12.05;;;4.82;;
48613;SDS011;34408;51.426;5.444;2024-02-21T05:36:53;12.60;;;4.82;;
48613;SDS011;34408;51.426;5.444;2024-02-21T05:39:21;11.10;;;4.47;;
48613;SDS011;34408;51.426;5.444;2024-02-21T05:41:50;14.57;;;5.90;;
48613;SDS011;34408;51.426;5.444;2024-02-21T05:44:18;11.77;;;4.53;;
48613;SDS011;34408;51.426;5.444;2024-02-21T05:46:46;20.05;;;5.82;;
48613;SDS011;34408;51.426;5.444;2024-02-21T05:49:15;16.00;;;5.70;;
48613;SDS011;34408;51.426;5.444;2024-02-21T05:51:43;10.70;;;4.57;;
48613;SDS011;34408;51.426;5.444;2024-02-21T05:54:11;12.55;;;5.30;;
48613;SDS011;34408;51.426;5.444;2024-02-21T05:56:39;13.30;;;5.10;;
48613;SDS011;34408;51.426;5.444;2024-02-21T05:59:07;12.95;;;6.15;;
48613;SDS011;34408;51.426;5.444;2024-02-21T06:01:34;11.27;;;4.90;;
48613;SDS011;34408;51.426;5.444;2024-02-21T06:04:02;14.40;;;5.03;;
48613;SDS011;34408;51.426;5.444;2024-02-21T06:06:32;9.55;;;4.18;;
48613;SDS011;34408;51.426;5.444;2024-02-21T06:09:00;11.32;;;5.35;;
48613;SDS011;34408;51.426;5.444;2024-02-21T06:11:29;11.50;;;4.88;;
48613;SDS011;34408;51.426;5.444;2024-02-21T06:13:57;11.27;;;4.63;;
48613;SDS011;34408;51.426;5.444;2024-02-21T06:16:25;12.63;;;4.97;;
48613;SDS011;34408;51.426;5.444;2024-02-21T06:18:52;12.30;;;4.82;;
48613;SDS011;34408;51.426;5.444;2024-02-21T06:21:20;10.50;;;5.15;;
48613;SDS011;34408;51.426;5.444;2024-02-21T06:23:49;11.05;;;4.20;;
48613;SDS011;34408;51.426;5.444;2024-02-21T06:26:17;9.55;;;4.65;;
48613;SDS011;34408;51.426;5.444;2024-02-21T06:28:45;17.20;;;5.50;;
48613;SDS011;34408;51.426;5.444;2024-02-21T06:31:13;11.65;;;4.80;;
48613;SDS011;34408;51.426;5.444;2024-02-21T06:33:42;8.70;;;4.10;;
48613;SDS011;34408;51.426;5.444;2024-02-21T06:36:10;14.93;;;5.88;;
48613;SDS011;34408;51.426;5.444;2024-02-21T06:38:38;11.85;;;4.70;;
48613;SDS011;34408;51.426;5.444;2024-02-21T06:41:13;15.10;;;5.50;;
48613;SDS011;34408;51.426;5.444;2024-02-21T06:43:42;14.25;;;5.30;;
48613;SDS011;34408;51.426;5.444;2024-02-21T06:46:10;12.18;;;4.85;;
48613;SDS011;34408;51.426;5.444;2024-02-21T06:48:37;12.05;;;4.65;;
48613;SDS011;34408;51.426;5.444;2024-02-21T06:51:09;13.27;;;5.90;;
48613;SDS011;34408;51.426;5.444;2024-02-21T06:53:37;9.88;;;4.75;;
48613;SDS011;34408;51.426;5.444;2024-02-21T06:56:05;18.15;;;6.43;;
48613;SDS011;34408;51.426;5.444;2024-02-21T06:58:34;10.38;;;4.85;;
48613;SDS011;34408;51.426;5.444;2024-02-21T07:01:02;10.48;;;5.22;;
48613;SDS011;34408;51.426;5.444;2024-02-21T07:03:30;11.05;;;4.90;;
48613;SDS011;34408;51.426;5.444;2024-02-21T07:05:58;13.35;;;5.40;;
48613;SDS011;34408;51.426;5.444;2024-02-21T07:08:26;15.75;;;5.38;;
48613;SDS011;34408;51.426;5.444;2024-02-21T07:10:54;14.95;;;6.45;;
48613;SDS011;34408;51.426;5.444;2024-02-21T07:13:22;12.35;;;4.72;;
48613;SDS011;34408;51.426;5.444;2024-02-21T07:15:51;12.70;;;5.13;;
48613;SDS011;34408;51.426;5.444;2024-02-21T07:18:19;12.18;;;5.00;;
48613;SDS011;34408;51.426;5.444;2024-02-21T07:20:47;15.55;;;5.95;;
48613;SDS011;34408;51.426;5.444;2024-02-21T07:23:15;14.77;;;4.75;;
48613;SDS011;34408;51.426;5.444;2024-02-21T07:25:43;14.63;;;6.10;;
48613;SDS011;34408;51.426;5.444;2024-02-21T07:28:11;15.27;;;5.10;;
48613;SDS011;34408;51.426;5.444;2024-02-21T07:30:40;11.90;;;5.05;;
48613;SDS011;34408;51.426;5.444;2024-02-21T07:33:09;11.88;;;6.00;;
48613;SDS011;34408;51.426;5.444;2024-02-21T07:35:37;9.00;;;4.25;;
48613;SDS011;34408;51.426;5.444;2024-02-21T07:38:07;9.13;;;4.43;;
48613;SDS011;34408;51.426;5.444;2024-02-21T07:40:39;12.73;;;5.35;;
48613;SDS011;34408;51.426;5.444;2024-02-21T07:43:07;8.68;;;3.97;;
48613;SDS011;34408;51.426;5.444;2024-02-21T07:45:34;10.38;;;4.65;;
48613;SDS011;34408;51.426;5.444;2024-02-21T07:48:02;10.25;;;4.93;;
48613;SDS011;34408;51.426;5.444;2024-02-21T07:50:32;10.05;;;4.68;;
48613;SDS011;34408;51.426;5.444;2024-02-21T07:53:00;10.48;;;5.05;;
48613;SDS011;34408;51.426;5.444;2024-02-21T07:55:28;8.95;;;4.30;;
48613;SDS011;34408;51.426;5.444;2024-02-21T07:57:56;11.95;;;4.90;;
48613;SDS011;34408;51.426;5.444;2024-02-21T08:00:24;11.68;;;3.67;;
48613;SDS011;34408;51.426;5.444;2024-02-21T08:02:52;9.00;;;4.32;;
48613;SDS011;34408;51.426;5.444;2024-02-21T08:05:20;10.60;;;4.85;;
48613;SDS011;34408;51.426;5.444;2024-02-21T08:07:49;8.40;;;4.13;;
48613;SDS011;34408;51.426;5.444;2024-02-21T08:10:20;8.30;;;3.90;;
48613;SDS011;34408;51.426;5.444;2024-02-21T08:12:47;7.28;;;3.58;;
48613;SDS011;34408;51.426;5.444;2024-02-21T08:15:15;6.18;;;3.88;;
48613;SDS011;34408;51.426;5.444;2024-02-21T08:17:43;10.65;;;4.50;;
48613;SDS011;34408;51.426;5.444;2024-02-21T08:20:11;11.18;;;3.97;;
48613;SDS011;34408;51.426;5.444;2024-02-21T08:22:39;9.40;;;3.90;;
48613;SDS011;34408;51.426;5.444;2024-02-21T08:25:08;9.60;;;4.65;;
48613;SDS011;34408;51.426;5.444;2024-02-21T08:27:37;8.82;;;4.20;;
48613;SDS011;34408;51.426;5.444;2024-02-21T08:30:05;8.50;;;4.32;;
48613;SDS011;34408;51.426;5.444;2024-02-21T08:32:34;10.07;;;3.80;;
48613;SDS011;34408;51.426;5.444;2024-02-21T08:35:02;7.95;;;3.55;;
48613;SDS011;34408;51.426;5.444;2024-02-21T08:37:31;7.85;;;3.53;;
48613;SDS011;34408;51.426;5.444;2024-02-21T08:39:59;9.68;;;3.92;;
48613;SDS011;34408;51.426;5.444;2024-02-21T08:42:32;6.25;;;3.63;;
48613;SDS011;34408;51.426;5.444;2024-02-21T08:45:00;5.03;;;3.22;;
48613;SDS011;34408;51.426;5.444;2024-02-21T08:47:28;8.00;;;3.67;;
48613;SDS011;34408;51.426;5.444;2024-02-21T08:49:56;7.85;;;4.00;;
48613;SDS011;34408;51.426;5.444;2024-02-21T08:52:24;7.93;;;3.92;;
48613;SDS011;34408;51.426;5.444;2024-02-21T08:54:51;7.10;;;3.22;;
48613;SDS011;34408;51.426;5.444;2024-02-21T08:57:19;8.50;;;3.60;;
48613;SDS011;34408;51.426;5.444;2024-02-21T08:59:49;8.15;;;3.78;;
48613;SDS011;34408;51.426;5.444;2024-02-21T09:02:17;6.68;;;3.30;;
48613;SDS011;34408;51.426;5.444;2024-02-21T09:04:45;7.05;;;3.30;;
48613;SDS011;34408;51.426;5.444;2024-02-21T09:07:12;6.68;;;3.72;;
48613;SDS011;34408;51.426;5.444;2024-02-21T09:09:40;7.00;;;3.75;;
48613;SDS011;34408;51.426;5.444;2024-02-21T09:12:08;8.43;;;4.13;;
48613;SDS011;34408;51.426;5.444;2024-02-21T09:14:37;4.88;;;3.03;;
48613;SDS011;34408;51.426;5.444;2024-02-21T09:17:07;8.10;;;3.35;;
48613;SDS011;34408;51.426;5.444;2024-02-21T09:19:35;8.05;;;3.45;;
48613;SDS011;34408;51.426;5.444;2024-02-21T09:22:03;7.63;;;3.40;;
48613;SDS011;34408;51.426;5.444;2024-02-21T09:24:31;7.15;;;3.25;;
48613;SDS011;34408;51.426;5.444;2024-02-21T09:26:59;12.23;;;4.03;;
48613;SDS011;34408;51.426;5.444;2024-02-21T09:29:27;6.28;;;3.55;;
48613;SDS011;34408;51.426;5.444;2024-02-21T09:31:55;7.20;;;3.67;;
48613;SDS011;34408;51.426;5.444;2024-02-21T09:34:24;6.97;;;3.00;;
48613;SDS011;34408;51.426;5.444;2024-02-21T09:36:54;7.30;;;3.17;;
48613;SDS011;34408;51.426;5.444;2024-02-21T09:39:22;9.27;;;3.47;;
48613;SDS011;34408;51.426;5.444;2024-02-21T09:41:50;7.53;;;3.92;;
48613;SDS011;34408;51.426;5.444;2024-02-21T09:44:22;7.15;;;3.38;;
48613;SDS011;34408;51.426;5.444;2024-02-21T09:46:52;10.25;;;3.72;;
48613;SDS011;34408;51.426;5.444;2024-02-21T09:49:29;6.00;;;3.00;;
48613;SDS011;34408;51.426;5.444;2024-02-21T09:52:00;9.55;;;3.50;;
48613;SDS011;34408;51.426;5.444;2024-02-21T09:54:29;8.90;;;3.60;;
48613;SDS011;34408;51.426;5.444;2024-02-21T09:56:57;7.30;;;3.67;;
48613;SDS011;34408;51.426;5.444;2024-02-21T09:59:26;7.43;;;3.60;;
48613;SDS011;34408;51.426;5.444;2024-02-21T10:01:54;8.05;;;3.70;;
48613;SDS011;34408;51.426;5.444;2024-02-21T10:04:23;7.30;;;3.15;;
48613;SDS011;34408;51.426;5.444;2024-02-21T10:06:52;6.82;;;3.05;;
48613;SDS011;34408;51.426;5.444;2024-02-21T10:09:21;9.80;;;3.80;;
48613;SDS011;34408;51.426;5.444;2024-02-21T10:11:50;6.95;;;2.80;;
48613;SDS011;34408;51.426;5.444;2024-02-21T10:14:18;7.57;;;3.00;;
48613;SDS011;34408;51.426;5.444;2024-02-21T10:16:46;7.70;;;3.45;;
48613;SDS011;34408;51.426;5.444;2024-02-21T10:19:18;8.75;;;3.08;;
48613;SDS011;34408;51.426;5.444;2024-02-21T10:22:04;5.82;;;2.75;;
48613;SDS011;34408;51.426;5.444;2024-02-21T10:24:34;7.60;;;2.80;;
48613;SDS011;34408;51.426;5.444;2024-02-21T10:27:05;8.38;;;3.33;;
48613;SDS011;34408;51.426;5.444;2024-02-21T10:29:35;6.20;;;3.08;;
48613;SDS011;34408;51.426;5.444;2024-02-21T10:32:06;9.23;;;3.08;;
48613;SDS011;34408;51.426;5.444;2024-02-21T10:34:35;8.43;;;3.28;;
48613;SDS011;34408;51.426;5.444;2024-02-21T10:37:06;7.30;;;2.65;;
48613;SDS011;34408;51.426;5.444;2024-02-21T10:39:37;6.22;;;3.05;;
48613;SDS011;34408;51.426;5.444;2024-02-21T10:42:05;7.30;;;2.60;;
48613;SDS011;34408;51.426;5.444;2024-02-21T10:44:37;7.05;;;3.33;;
48613;SDS011;34408;51.426;5.444;2024-02-21T10:47:07;6.40;;;3.25;;
48613;SDS011;34408;51.426;5.444;2024-02-21T10:49:38;9.63;;;3.75;;
48613;SDS011;34408;51.426;5.444;2024-02-21T10:52:12;7.07;;;2.83;;
48613;SDS011;34408;51.426;5.444;2024-02-21T10:54:44;9.20;;;3.30;;
48613;SDS011;34408;51.426;5.444;2024-02-21T10:57:16;9.77;;;3.20;;
48613;SDS011;34408;51.426;5.444;2024-02-21T10:59:45;9.07;;;2.97;;
48613;SDS011;34408;51.426;5.444;2024-02-21T11:02:13;11.70;;;3.05;;
48613;SDS011;34408;51.426;5.444;2024-02-21T11:04:41;5.00;;;2.72;;
48613;SDS011;34408;51.426;5.444;2024-02-21T11:07:12;7.40;;;2.85;;
48613;SDS011;34408;51.426;5.444;2024-02-21T11:09:50;7.18;;;3.22;;
48613;SDS011;34408;51.426;5.444;2024-02-21T11:12:19;8.70;;;3.22;;
48613;SDS011;34408;51.426;5.444;2024-02-21T11:14:49;10.68;;;2.80;;
48613;SDS011;34408;51.426;5.444;2024-02-21T11:17:17;4.47;;;2.30;;
48613;SDS011;34408;51.426;5.444;2024-02-21T11:19:46;6.25;;;2.60;;
48613;SDS011;34408;51.426;5.444;2024-02-21T11:22:16;7.25;;;2.63;;
48613;SDS011;34408;51.426;5.444;2024-02-21T11:24:45;4.95;;;3.20;;
48613;SDS011;34408;51.426;5.444;2024-02-21T11:27:13;7.07;;;2.45;;
48613;SDS011;34408;51.426;5.444;2024-02-21T11:29:42;7.35;;;2.90;;
48613;SDS011;34408;51.426;5.444;2024-02-21T11:32:11;5.93;;;2.60;;
48613;SDS011;34408;51.426;5.444;2024-02-21T11:34:40;7.80;;;2.70;;
48613;SDS011;34408;51.426;5.444;2024-02-21T11:37:15;7.28;;;3.55;;
48613;SDS011;34408;51.426;5.444;2024-02-21T11:39:43;11.93;;;3.42;;
48613;SDS011;34408;51.426;5.444;2024-02-21T11:42:12;8.77;;;2.53;;
48613;SDS011;34408;51.426;5.444;2024-02-21T11:44:39;10.93;;;4.47;;
48613;SDS011;34408;51.426;5.444;2024-02-21T11:47:09;5.57;;;2.88;;
48613;SDS011;34408;51.426;5.444;2024-02-21T11:49:37;8.48;;;3.80;;
48613;SDS011;34408;51.426;5.444;2024-02-21T11:52:06;6.40;;;3.25;;
48613;SDS011;34408;51.426;5.444;2024-02-21T11:54:35;6.18;;;2.53;;
48613;SDS011;34408;51.426;5.444;2024-02-21T11:57:03;5.80;;;2.65;;
48613;SDS011;34408;51.426;5.444;2024-02-21T11:59:31;6.80;;;2.70;;
48613;SDS011;34408;51.426;5.444;2024-02-21T12:02:00;6.00;;;2.67;;
48613;SDS011;34408;51.426;5.444;2024-02-21T12:04:29;11.48;;;3.38;;
48613;SDS011;34408;51.426;5.444;2024-02-21T12:06:58;8.75;;;2.50;;
48613;SDS011;34408;51.426;5.444;2024-02-21T12:09:27;11.25;;;2.97;;
48613;SDS011;34408;51.426;5.444;2024-02-21T12:11:59;8.82;;;3.00;;
48613;SDS011;34408;51.426;5.444;2024-02-21T12:14:29;6.30;;;2.70;;
48613;SDS011;34408;51.426;5.444;2024-02-21T12:16:58;7.85;;;2.67;;
48613;SDS011;34408;51.426;5.444;2024-02-21T12:19:28;6.55;;;2.72;;
48613;SDS011;34408;51.426;5.444;2024-02-21T12:21:58;7.60;;;2.80;;
48613;SDS011;34408;51.426;5.444;2024-02-21T12:24:27;5.45;;;2.92;;
48613;SDS011;34408;51.426;5.444;2024-02-21T12:26:57;5.72;;;2.47;;
48613;SDS011;34408;51.426;5.444;2024-02-21T12:29:26;7.47;;;2.42;;
48613;SDS011;34408;51.426;5.444;2024-02-21T12:31:55;5.88;;;2.55;;
48613;SDS011;34408;51.426;5.444;2024-02-21T12:34:23;9.18;;;2.63;;
48613;SDS011;34408;51.426;5.444;2024-02-21T12:37:10;9.75;;;2.90;;
48613;SDS011;34408;51.426;5.444;2024-02-21T12:39:40;8.60;;;3.10;;
48613;SDS011;34408;51.426;5.444;2024-02-21T12:42:09;7.13;;;2.50;;
48613;SDS011;34408;51.426;5.444;2024-02-21T12:44:38;9.60;;;3.13;;
48613;SDS011;34408;51.426;5.444;2024-02-21T12:47:05;7.43;;;2.40;;
48613;SDS011;34408;51.426;5.444;2024-02-21T12:49:34;7.65;;;3.47;;
48613;SDS011;34408;51.426;5.444;2024-02-21T12:52:04;10.45;;;2.97;;
48613;SDS011;34408;51.426;5.444;2024-02-21T12:54:32;9.40;;;2.55;;
48613;SDS011;34408;51.426;5.444;2024-02-21T12:57:00;10.00;;;3.35;;
48613;SDS011;34408;51.426;5.444;2024-02-21T12:59:31;7.05;;;2.65;;
48613;SDS011;34408;51.426;5.444;2024-02-21T13:01:58;8.40;;;2.67;;
48613;SDS011;34408;51.426;5.444;2024-02-21T13:04:27;6.63;;;2.10;;
48613;SDS011;34408;51.426;5.444;2024-02-21T13:06:54;7.00;;;3.03;;
48613;SDS011;34408;51.426;5.444;2024-02-21T13:09:22;5.80;;;2.00;;
48613;SDS011;34408;51.426;5.444;2024-02-21T13:11:50;8.32;;;2.40;;
48613;SDS011;34408;51.426;5.444;2024-02-21T13:14:19;9.38;;;2.78;;
48613;SDS011;34408;51.426;5.444;2024-02-21T13:16:50;6.95;;;2.63;;
48613;SDS011;34408;51.426;5.444;2024-02-21T13:19:18;7.68;;;2.45;;
48613;SDS011;34408;51.426;5.444;2024-02-21T13:21:47;6.53;;;2.88;;
48613;SDS011;34408;51.426;5.444;2024-02-21T13:24:15;7.70;;;2.70;;
48613;SDS011;34408;51.426;5.444;2024-02-21T13:26:42;6.65;;;2.67;;
48613;SDS011;34408;51.426;5.444;2024-02-21T13:29:10;5.00;;;2.75;;
48613;SDS011;34408;51.426;5.444;2024-02-21T13:31:38;7.85;;;2.85;;
48613;SDS011;34408;51.426;5.444;2024-02-21T13:34:08;5.28;;;2.38;;
48613;SDS011;34408;51.426;5.444;2024-02-21T13:36:37;5.18;;;2.38;;
48613;SDS011;34408;51.426;5.444;2024-02-21T13:39:05;5.15;;;2.63;;
48613;SDS011;34408;51.426;5.444;2024-02-21T13:41:34;12.68;;;2.83;;
48613;SDS011;34408;51.426;5.444;2024-02-21T13:44:02;7.20;;;2.45;;
48613;SDS011;34408;51.426;5.444;2024-02-21T13:46:31;6.55;;;2.13;;
48613;SDS011;34408;51.426;5.444;2024-02-21T13:49:02;8.88;;;2.42;;
48613;SDS011;34408;51.426;5.444;2024-02-21T13:51:34;7.03;;;2.25;;
48613;SDS011;34408;51.426;5.444;2024-02-21T13:54:03;4.00;;;2.20;;
48613;SDS011;34408;51.426;5.444;2024-02-21T13:56:31;7.32;;;2.05;;
48613;SDS011;34408;51.426;5.444;2024-02-21T13:58:59;6.30;;;2.08;;
48613;SDS011;34408;51.426;5.444;2024-02-21T14:01:28;8.60;;;1.70;;
48613;SDS011;34408;51.426;5.444;2024-02-21T14:03:56;8.88;;;2.50;;
48613;SDS011;34408;51.426;5.444;2024-02-21T14:06:23;5.97;;;2.35;;
48613;SDS011;34408;51.426;5.444;2024-02-21T14:08:53;7.25;;;2.88;;
48613;SDS011;34408;51.426;5.444;2024-02-21T14:11:21;7.40;;;1.95;;
48613;SDS011;34408;51.426;5.444;2024-02-21T14:13:49;5.78;;;2.17;;
48613;SDS011;34408;51.426;5.444;2024-02-21T14:16:18;6.32;;;2.30;;
48613;SDS011;34408;51.426;5.444;2024-02-21T14:18:49;7.13;;;2.22;;
48613;SDS011;34408;51.426;5.444;2024-02-21T14:21:17;6.15;;;2.20;;
48613;SDS011;34408;51.426;5.444;2024-02-21T14:23:45;5.95;;;2.15;;
48613;SDS011;34408;51.426;5.444;2024-02-21T14:26:15;7.75;;;2.60;;
48613;SDS011;34408;51.426;5.444;2024-02-21T14:28:42;7.47;;;2.05;;
48613;SDS011;34408;51.426;5.444;2024-02-21T14:31:10;6.28;;;2.28;;
48613;SDS011;34408;51.426;5.444;2024-02-21T14:33:38;5.45;;;1.92;;
48613;SDS011;34408;51.426;5.444;2024-02-21T14:36:06;5.75;;;1.85;;
48613;SDS011;34408;51.426;5.444;2024-02-21T14:38:35;6.72;;;2.20;;
48613;SDS011;34408;51.426;5.444;2024-02-21T14:41:02;6.60;;;2.22;;
48613;SDS011;34408;51.426;5.444;2024-02-21T14:43:32;6.38;;;2.03;;
48613;SDS011;34408;51.426;5.444;2024-02-21T14:46:01;4.97;;;2.17;;
48613;SDS011;34408;51.426;5.444;2024-02-21T14:48:30;7.63;;;2.10;;
48613;SDS011;34408;51.426;5.444;2024-02-21T14:50:59;5.28;;;2.50;;